Flight Track Log - Related Links

Times and Time Zones

All times are in EDT time to prevent confusion due to time zone crossing. See the KAL243 flight status page for this flight to view local times or setup timezone preferences in your user account.

Time Position Orientation Groundspeed Altitude Reporting Facility
EDT Latitude Longitude Course Direction KTS MPH feet Rate Location/Type
Thu 02:30:02 AM 33.6190 -84.4640 255° West 168 193 2,000  Level FlightAware ADS-B
Thu 02:30:22 AM 33.6130 -84.4790 244° Southwest 174 200 2,600 1,950 Climbing FlightAware ADS-B
Thu 02:30:42 AM 33.6060 -84.4940 241° Southwest 183 211 3,300 2,000 Climbing FlightAware ADS-B
Thu 02:31:22 AM 33.5890 -84.5340 243° Southwest 195 224 4,600 1,700 Climbing FlightAware ADS-B
Thu 02:31:42 AM 33.5860 -84.5600 262° West 235 270 5,000 2,533 Climbing FlightAware ADS-B
Thu 02:32:27 AM 33.5910 -84.6240 275° West 6,800 2,914 Climbing FlightAware ADS-B
Thu 02:32:52 AM 33.5940 -84.6680 275° West 279 321 8,400 3,323 Climbing FlightAware ADS-B
Thu 02:33:32 AM 33.5980 -84.7280 275° West 288 331 10,400 2,259 Climbing FlightAware ADS-B
Thu 02:34:17 AM 33.6050 -84.8100 276° West 346 398 11,600 2,047 Climbing FlightAware ADS-B
Thu 02:34:57 AM 33.6120 -84.8900 276° West 368 423 13,300 2,625 Climbing FlightAware ADS-B
Thu 02:35:37 AM 33.6160 -84.9670 274° West 383 441 15,100 2,753 Climbing FlightAware ADS-B
Thu 02:36:22 AM 33.6230 -85.0640 275° West 393 452 17,200 2,820 Climbing FlightAware ADS-B
Thu 02:37:17 AM 33.6320 -85.1900 275° West 407 468 19,800 2,580 Climbing FlightAware ADS-B
Thu 02:38:02 AM 33.6390 -85.2880 275° West 414 476 21,500 1,133 Climbing FlightAware ADS-B
Thu 02:38:47 AM 33.6450 -85.3780 275° West 414 476 21,500 2,211 Level FlightAware ADS-B
Thu 02:39:37 AM 33.6550 -85.5150 275° West 433 498 25,000 2,211 Climbing FlightAware ADS-B
Thu 02:40:22 AM 33.6610 -85.6110 274° West 433 498 25,000  Level FlightAware ADS-B
Thu 02:41:02 AM 33.6660 -85.6930 274° West 433 498 25,000  Level FlightAware ADS-B
Thu 02:41:52 AM 33.6720 -85.7950 274° West 433 498 25,000  Level FlightAware ADS-B
Thu 02:42:32 AM 33.6760 -85.8760 273° West 433 498 25,000  Level FlightAware ADS-B
Thu 02:43:12 AM 33.6810 -85.9580 274° West 433 498 25,000 2,842 Level FlightAware ADS-B
Thu 02:45:42 AM 33.6380 -86.4200 264° West 439 505 34,000 2,769 Climbing FlightAware ADS-B
Thu 02:46:27 AM 33.6340 -86.5410 268° West 437 503 34,000  Level FlightAware ADS-B
Thu 02:47:12 AM 33.6310 -86.6540 268° West 438 504 34,000  Level FlightAware ADS-B
Thu 02:48:07 AM 33.6270 -86.7830 268° West 439 505 34,000  Level FlightAware ADS-B
Thu 02:49:02 AM 33.6230 -86.9090 268° West 439 505 34,000  Level FlightAware ADS-B
Thu 02:49:47 AM 33.6200 -87.0040 268° West 439 505 34,000  Level FlightAware ADS-B
Thu 02:50:27 AM 33.6170 -87.0870 268° West 439 505 34,000  Level FlightAware ADS-B
Thu 02:51:07 AM 33.6150 -87.1700 268° West 439 505 34,000  Level FlightAware ADS-B
Thu 02:51:47 AM 33.6120 -87.2530 268° West 439 505 34,000  Level FlightAware ADS-B
Thu 02:52:27 AM 33.6100 -87.3360 268° West 439 505 34,000  Level FlightAware ADS-B
Thu 02:53:17 AM 33.6070 -87.4390 268° West 439 505 34,000  Level FlightAware ADS-B
Thu 02:53:57 AM 33.6050 -87.5220 268° West 439 505 34,000  Level FlightAware ADS-B
Thu 02:54:37 AM 33.6020 -87.6050 268° West 439 505 34,000  Level FlightAware ADS-B
Thu 02:55:17 AM 33.6000 -87.6880 268° West 439 505 34,000  Level FlightAware ADS-B
Thu 02:55:57 AM 33.5970 -87.7710 268° West 439 505 34,000  Level FlightAware ADS-B
Thu 02:56:47 AM 33.5940 -87.8740 268° West 439 505 34,000  Level FlightAware ADS-B
Thu 02:57:27 AM 33.5920 -87.9570 268° West 439 505 34,000  Level FlightAware ADS-B
Thu 02:58:07 AM 33.5890 -88.0400 268° West 439 505 34,000  Level FlightAware ADS-B
Thu 02:58:47 AM 33.5870 -88.1230 268° West 439 505 34,000  Level FlightAware ADS-B
Thu 02:59:20 AM 33.5606 -88.4203 268° West 447 514 34,000  Level Memphis Center
Thu 03:00:20 AM 33.5544 -88.5700 267° West 447 514 34,000  Level Memphis Center
Thu 03:01:20 AM 33.5461 -88.7197 266° West 452 520 34,000  Level Memphis Center
Thu 03:02:20 AM 33.5439 -88.8692 269° West 457 526 34,000  Level Memphis Center
Thu 03:03:20 AM 33.5353 -89.0214 266° West 457 526 34,000  Level Memphis Center
Thu 03:04:20 AM 33.5283 -89.1736 267° West 462 532 34,000  Level Memphis Center
Thu 03:05:20 AM 33.5214 -89.3231 267° West 462 532 34,000  Level Memphis Center
Thu 03:06:20 AM 33.5100 -89.4753 265° West 462 532 34,000  Level Memphis Center
Thu 03:07:20 AM 33.5025 -89.6247 267° West 462 532 34,000  Level Memphis Center
Thu 03:08:20 AM 33.4950 -89.7792 267° West 462 532 34,000  Level Memphis Center
Thu 03:09:20 AM 33.4853 -89.9464 266° West 462 532 34,000  Level Memphis Center
Thu 03:10:20 AM 33.4753 -90.0958 265° West 462 532 34,000  Level Memphis Center
Thu 03:11:20 AM 33.4672 -90.2478 266° West 462 532 34,000  Level Memphis Center
Thu 03:12:20 AM 33.4569 -90.3994 265° West 462 532 34,000  Level Memphis Center
Thu 03:13:20 AM 33.4464 -90.5514 265° West 462 532 34,000  Level Memphis Center
Thu 03:14:20 AM 33.4375 -90.7033 266° West 462 532 34,000  Level Memphis Center
Thu 03:15:20 AM 33.4286 -90.8525 266° West 462 532 34,000  Level Memphis Center
Thu 03:16:20 AM 33.4156 -91.0042 264° West 462 532 34,000  Level Memphis Center
Thu 03:17:20 AM 33.4083 -91.1536 267° West 462 532 34,000  Level Memphis Center
Thu 03:18:20 AM 33.3969 -91.3053 265° West 462 532 34,000  Level Memphis Center
Thu 03:20:01 AM 33.3878 -91.5550 268° West 449 517 34,000  Level Fort Worth Center
Thu 03:21:01 AM 33.3761 -91.7100 265° West 454 522 34,000  Level Fort Worth Center
Thu 03:22:01 AM 33.3681 -91.8572 266° West 459 528 34,000  Level Fort Worth Center
Thu 03:23:01 AM 33.3536 -92.0047 263° West 459 528 34,000  Level Fort Worth Center
Thu 03:24:01 AM 33.3433 -92.1547 265° West 459 528 34,000  Level Fort Worth Center
Thu 03:25:01 AM 33.3328 -92.3044 265° West 459 528 34,000  Level Fort Worth Center
Thu 03:26:01 AM 33.3181 -92.4544 263° West 459 528 34,000  Level Fort Worth Center
Thu 03:27:01 AM 33.3072 -92.6067 265° West 459 528 34,000  Level Fort Worth Center
Thu 03:32:24 AM 33.2347 -93.4225 265° West 440 506 34,000  Level FlightAware ADS-B
Thu 03:32:54 AM 33.2284 -93.4945 264° West 436 502 34,000  Level FlightAware ADS-B
Thu 03:33:25 AM 33.2218 -93.5705 264° West 434 499 34,000  Level FlightAware ADS-B
Thu 03:33:56 AM 33.2154 -93.6437 264° West 427 491 34,000  Level FlightAware ADS-B
Thu 03:34:58 AM 33.2027 -93.7882 264° West 424 488 34,000  Level FlightAware ADS-B
Thu 03:35:31 AM 33.1959 -93.8648 264° West 423 487 34,000  Level FlightAware ADS-B
Thu 03:36:21 AM 33.1855 -93.9784 264° West 423 487 34,000  Level FlightAware ADS-B
Thu 03:36:52 AM 33.1790 -94.0480 264° West 421 484 34,000  Level FlightAware ADS-B
Thu 03:37:32 AM 33.1720 -94.1260 264° West 420 483 34,000  Level FlightAware ADS-B
Thu 03:38:19 AM 33.1604 -94.2514 264° West 416 479 34,000  Level FlightAware ADS-B
Thu 03:39:00 AM 33.1517 -94.3445 264° West 414 476 34,000  Level FlightAware ADS-B
Thu 03:39:31 AM 33.1451 -94.4148 264° West 413 475 34,000  Level FlightAware ADS-B
Thu 03:40:01 AM 33.1388 -94.4825 264° West 410 472 34,000  Level FlightAware ADS-B
Thu 03:40:37 AM 33.1320 -94.5540 264° West 407 468 34,000  Level FlightAware ADS-B
Thu 03:41:17 AM 33.1227 -94.6515 264° West 403 464 34,000  Level FlightAware ADS-B
Thu 03:42:02 AM 33.1160 -94.7240 264° West 403 464 34,000  Level FlightAware ADS-B
Thu 03:42:30 AM 33.1072 -94.8127 263° West 404 465 34,000  Level FlightAware ADS-B
Thu 03:43:22 AM 33.0970 -94.9190 263° West 403 464 34,000  Level FlightAware ADS-B
Thu 03:43:45 AM 33.0909 -94.9763 263° West 403 464 34,000  Level FlightAware ADS-B
Thu 03:44:19 AM 33.0833 -95.0533 263° West 404 465 34,000  Level FlightAware ADS-B
Thu 03:44:52 AM 33.0790 -95.1000 264° West 403 464 34,000 -286 Level FlightAware ADS-B
Thu 03:45:22 AM 33.0710 -95.1810 263° West 398 458 33,700 -1,143 Descending FlightAware ADS-B
Thu 03:45:55 AM 33.0623 -95.2634 263° West 402 463 32,800 -1,268 Descending FlightAware ADS-B
Thu 03:46:33 AM 33.0541 -95.3425 263° West 388 447 32,200 -1,000 Descending FlightAware ADS-B
Thu 03:47:37 AM 33.0410 -95.4760 263° West 389 448 31,100 -1,029 Descending FlightAware ADS-B
Thu 03:47:43 AM 33.0389 -95.4928 262° West 386 444 31,000 -1,350 Descending FlightAware ADS-B
Thu 03:48:17 AM 33.0315 -95.5651 263° West 388 447 30,200 -1,969 Descending FlightAware ADS-B
Thu 03:48:47 AM 33.0250 -95.6290 263° West 392 451 28,900 -2,612 Descending FlightAware ADS-B
Thu 03:49:42 AM 33.0130 -95.7410 263° West 397 457 26,500 -2,661 Descending FlightAware ADS-B
Thu 03:50:42 AM 32.9990 -95.8670 262° West 395 455 23,800 -2,520 Descending FlightAware ADS-B
Thu 03:51:22 AM 32.9920 -95.9380 263° West 389 448 22,300 -3,032 Descending FlightAware ADS-B
Thu 03:52:17 AM 32.9770 -96.0740 263° West 390 449 19,000 -3,221 Descending FlightAware ADS-B
Thu 03:52:57 AM 32.9690 -96.1560 263° West 385 443 17,200 -1,650 Descending FlightAware ADS-B
Thu 03:53:37 AM 32.9610 -96.2260 262° West 384 442 16,800 -2,824 Descending FlightAware ADS-B
Thu 03:54:22 AM 32.9680 -96.3320 275° West 383 441 13,200 -4,024 Descending FlightAware ADS-B
Thu 03:55:02 AM 32.9760 -96.4160 276° West 380 437 11,100 -2,118 Descending FlightAware ADS-B
Thu 03:55:47 AM 32.9820 -96.5060 275° West 354 407 10,200 -960 Descending FlightAware ADS-B
Thu 03:56:17 AM 32.9850 -96.5640 274° West 319 367 9,900 -545 Descending FlightAware ADS-B
Thu 03:56:42 AM 32.9870 -96.6080 273° West 300 345 9,700 -655 Descending FlightAware ADS-B
Thu 03:57:12 AM 32.9890 -96.6490 273° West 285 328 9,300 -764 Descending FlightAware ADS-B
Thu 03:57:37 AM 32.9960 -96.6890 282° West 268 308 9,000 -982 Descending FlightAware ADS-B
Thu 03:58:07 AM 33.0040 -96.7270 284° West 264 304 8,400 -1,418 Descending FlightAware ADS-B
Thu 03:58:32 AM 33.0130 -96.7670 285° West 259 298 7,700 -1,855 Descending FlightAware ADS-B
Thu 03:59:02 AM 33.0220 -96.8070 285° West 257 296 6,700 -1,950 Descending FlightAware ADS-B
Thu 03:59:12 AM 33.0250 -96.8210 284° West 260 299 6,400 -1,636 Descending FlightAware ADS-B
Thu 03:59:57 AM 33.0290 -96.8360 288° West 264 304 5,200 -1,360 Descending FlightAware ADS-B
Thu 04:00:27 AM 33.0510 -96.9140 289° West 264 304 4,700 -1,100 Descending FlightAware ADS-B
Thu 04:00:57 AM 33.0650 -96.9670 288° West 243 280 4,100 -982 Descending FlightAware ADS-B
Thu 04:01:22 AM 33.0670 -96.9990 274° West 220 253 3,800 -764 Descending FlightAware ADS-B
Thu 04:01:52 AM 33.0600 -97.0310 255° West 183 211 3,400 -800 Descending FlightAware ADS-B
Thu 04:02:07 AM 33.0530 -97.0410 230° Southwest 172 198 3,200 -600 Descending FlightAware ADS-B
Thu 04:02:32 AM 33.0370 -97.0520 210° Southwest 148 170 3,000 -533 Descending FlightAware ADS-B
Thu 04:02:52 AM 33.0240 -97.0540 187° South 142 163 2,800 -700 Descending FlightAware ADS-B
Thu 04:03:32 AM 32.9990 -97.0540 180° South 131 151 2,300 -764 Descending FlightAware ADS-B
Thu 04:03:47 AM 32.9900 -97.0540 180° South 130 150 2,100 -400 Descending FlightAware ADS-B
Thu 04:04:32 AM 32.9630 -97.0540 180° South 136 157 1,900 -656 Descending FlightAware ADS-B
Thu 04:04:51 AM 32.9500 -97.0500 180° South 135 155 1,400 -1,579 Descending Dallas / Fort Worth TRACON

Login

Don't have an account? Register now (free) for customized features, flight alerts, and more!